METAR Data
IDs: Format: Raw Decoded Include TAF

Data at: 2340 UTC 25 Oct 2021

KBMT 252315Z AUTO 12003KT 10SM BKN031 BKN039 29/24 A2991 RMK AO2 T02920235
KBMT 252255Z AUTO 07005KT 10SM BKN035 BKN041 31/23 A2991 RMK AO2 T03060231
KBMT 252235Z AUTO 02003KT 10SM SCT033 31/23 A2991 RMK AO2 T03090227
KBMT 252215Z AUTO 00000KT 10SM CLR 31/22 A2991 RMK AO2 T03050224
KBMT 252155Z AUTO 00000KT 10SM SCT048 30/23 A2991 RMK AO2 T02980228
KBMT 252135Z AUTO 03004KT 10SM SCT034 BKN048 31/23 A2991 RMK AO2 T03080226
KBMT 252115Z AUTO 00000KT 10SM SCT034 31/22 A2992 RMK AO2 T03130222
KBMT 252055Z AUTO 02004KT 10SM SCT034 BKN048 32/22 A2991 RMK AO2 T03180224
KBMT 252035Z AUTO 02003KT 10SM SCT048 30/22 A2992 RMK AO2 T03040223
KBMT 252015Z AUTO 00000KT 10SM SCT033 32/22 A2992 RMK AO2 T03200221
KBMT 251955Z AUTO 35006KT 10SM SCT033 BKN044 32/23 A2992 RMK AO2 T03160228
KBMT 251935Z AUTO 30003KT 10SM SCT031 SCT046 31/22 A2992 RMK AO2 T03070220
KBMT 251915Z AUTO 00000KT 10SM CLR 31/23 A2992 RMK AO2 T03120225
KBMT 251855Z AUTO 31003KT 10SM CLR 31/23 A2993 RMK AO2 T03090225
KBMT 251835Z AUTO 00000KT 10SM SCT030 SCT040 30/22 A2994 RMK AO2 T02960222
KBMT 251815Z AUTO 31004KT 10SM BKN030 BKN040 31/22 A2995 RMK AO2 T03090224
KBMT 251755Z AUTO 30003KT 10SM SCT024 SCT030 29/23 A2996 RMK AO2 T02900230 10305 20216
KBMT 251735Z AUTO 00000KT 10SM SCT022 SCT030 30/23 A2996 RMK AO2 T02990231
KBMT 251715Z AUTO 00000KT 10SM BKN020 30/23 A2996 RMK AO2 T02950232
KBMT 251655Z AUTO 30006KT 10SM BKN018 29/23 A2997 RMK AO2 T02940233
KBMT 251635Z AUTO 28004KT 10SM BKN016 29/24 A2997 RMK AO2 T02890237
KBMT 251615Z AUTO 30004KT 10SM BKN014 28/24 A2998 RMK AO2 T02760237
KBMT 251555Z AUTO 28006KT 10SM OVC012 26/25 A2998 RMK AO2 T02560250
KBMT 251535Z AUTO 30006KT 10SM BKN010 BKN014 25/25 A2998 RMK AO2 T02530248
KBMT 251515Z AUTO 31006KT 10SM BKN008 25/25 A2999 RMK AO2 T02510245
KBMT 251455Z AUTO 00000KT 10SM BKN004 OVC008 25/24 A2999 RMK AO2 T02460240
KBMT 251435Z AUTO 31003KT 4SM BR OVC002 24/24 A2999 RMK AO2 T02420237
KBMT 251415Z AUTO 00000KT 1/2SM FG OVC002 24/24 A2999 RMK AO2 T02400235
KBMT 251355Z AUTO 00000KT 1/4SM FG OVC002 24/23 A2998 RMK AO2 T02350230
KBMT 251335Z AUTO 00000KT 1/4SM FG OVC002 23/23 A2997 RMK AO2 T02330227
KBMT 251315Z AUTO 00000KT 1/4SM FG OVC002 23/22 A2996 RMK AO2 T02280222
KBMT 251255Z AUTO 00000KT M1/4SM FG OVC002 23/22 A2996 RMK AO2 T02260221
KBMT 251235Z AUTO 00000KT M1/4SM FG OVC002 22/22 A2995 RMK AO2 T02220217
KBMT 251215Z AUTO 34004KT 3/4SM BR OVC002 22/21 A2994 RMK AO2 T02190213
KBMT 251155Z AUTO 00000KT 3/4SM BR OVC002 22/21 A2993 RMK AO2 T02170212 10226 20213
KBMT 251135Z AUTO 00000KT 1/4SM FG OVC002 22/21 A2993 RMK AO2 T02170212
KBMT 251115Z AUTO 00000KT 1/2SM FG OVC002 22/21 A2992 RMK AO2 T02150210
KBMT 251055Z AUTO 00000KT M1/4SM FG OVC002 22/21 A2992 RMK AO2 T02160211
KBMT 251035Z AUTO 00000KT 1/4SM FG OVC002 22/21 A2992 RMK AO2 T02200214
KBMT 251015Z AUTO 00000KT M1/4SM FG OVC002 22/21 A2991 RMK AO2 T02200213
KBMT 250955Z AUTO 00000KT M1/4SM FG OVC002 22/22 A2991 RMK AO2 T02200215
KBMT 250935Z AUTO 00000KT M1/4SM FG OVC002 22/21 A2990 RMK AO2 T02190213
KBMT 250915Z AUTO 00000KT 1/4SM FG OVC002 22/22 A2990 RMK AO2 T02230218
KBMT 250855Z AUTO 00000KT 1/4SM FG OVC002 22/22 A2991 RMK AO2 T02210216
KBMT 250835Z AUTO 00000KT 1/4SM FG OVC002 22/22 A2991 RMK AO2 T02210216
KBMT 250815Z AUTO 00000KT 1/4SM FG OVC002 22/22 A2992 RMK AO2 T02210216
KBMT 250755Z AUTO 00000KT 1/2SM FG OVC002 23/22 A2991 RMK AO2 T02250220
KBMT 250735Z AUTO 00000KT M1/4SM FG OVC002 22/21 A2991 RMK AO2 T02180213
KBMT 250715Z AUTO 00000KT 1/4SM FG OVC002 22/21 A2991 RMK AO2 T02170212
KBMT 250655Z AUTO 00000KT M1/4SM FG OVC002 21/21 A2992 RMK AO2 T02140209
KBMT 250635Z AUTO 00000KT 1/4SM FG OVC002 23/22 A2991 RMK AO2 T02250220
KBMT 250615Z AUTO 00000KT M1/4SM FG OVC002 23/22 A2990 RMK AO2 T02250220
KBMT 250555Z AUTO 00000KT M1/4SM FG OVC002 22/22 A2989 RMK AO2 T02220217 10258 20218 403060213
KBMT 250535Z AUTO 00000KT 1/4SM FG OVC002 23/22 A2989 RMK AO2 T02290224
KBMT 250515Z AUTO 00000KT 1/4SM FG OVC004 23/22 A2990 RMK AO2 T02300224
KBMT 250455Z AUTO 00000KT 1/4SM FG BKN002 BKN007 23/23 A2989 RMK AO2 T02330228
KBMT 250435Z AUTO 00000KT 4SM BR BKN007 23/23 A2990 RMK AO2 T02330228
KBMT 250415Z AUTO 17003KT 7SM BKN007 24/23 A2989 RMK AO2 T02350229
KBMT 250355Z AUTO 00000KT 1/4SM FG OVC007 23/23 A2990 RMK AO2 T02310225
KBMT 250335Z AUTO 00000KT 7SM CLR 24/23 A2990 RMK AO2 T02360231
KBMT 250315Z AUTO 00000KT 10SM SCT007 24/23 A2988 RMK AO2 T02400234
KBMT 250255Z AUTO 13004KT 10SM BKN007 24/24 A2988 RMK AO2 T02410235
KBMT 250235Z AUTO 12003KT 10SM SCT007 24/23 A2988 RMK AO2 T02400233
KBMT 250215Z AUTO 12005KT 10SM SCT009 24/23 A2987 RMK AO2 T02400233
KBMT 250155Z AUTO 12005KT 10SM BKN009 24/24 A2988 RMK AO2 T02420236
KBMT 250135Z AUTO 13003KT 10SM CLR 24/24 A2987 RMK AO2 T02420235
KBMT 250115Z AUTO 13006KT 10SM CLR 25/24 A2987 RMK AO2 T02450235
KBMT 250055Z AUTO 14005KT 10SM CLR 25/24 A2987 RMK AO2 T02460235
KBMT 250035Z AUTO 14004KT 10SM CLR 25/24 A2987 RMK AO2 T02490235
KBMT 250015Z AUTO 14005KT 10SM CLR 25/23 A2986 RMK AO2 T02510233
KBMT 242355Z AUTO 14005KT 10SM SCT018 SCT027 SCT032 26/23 A2986 RMK AO2 T02590231 10306 20256
KBMT 242335Z AUTO 14008KT 10SM BKN020 BKN026 OVC033 27/23 A2984 RMK AO2 T02670231
KBMT 242315Z AUTO 14004KT 10SM BKN022 OVC033 28/23 A2984 RMK AO2 T02770228
KBMT 242255Z AUTO 13007KT 10SM BKN024 OVC032 28/23 A2984 RMK AO2 T02840229
KBMT 242235Z AUTO 12009KT 10SM BKN030 BKN035 29/23 A2983 RMK AO2 T02910225
KBMT 242215Z AUTO 13007KT 10SM CLR 30/22 A2983 RMK AO2 T02950217
KBMT 242155Z AUTO 17008KT 10SM CLR 30/22 A2983 RMK AO2 T02970216
KBMT 242135Z AUTO 16006KT 10SM CLR 30/22 A2984 RMK AO2 T02960215
KBMT 242115Z AUTO 15006KT 10SM SCT031 SCT037 30/21 A2984 RMK AO2 T03020212
KBMT 242055Z AUTO 18007KT 10SM BKN033 31/22 A2984 RMK AO2 T03050215
KBMT 242035Z AUTO 13007KT 10SM SCT033 SCT040 30/22 A2983 RMK AO2 T03030219
KBMT 242015Z AUTO 18005KT 10SM SCT029 30/22 A2984 RMK AO2 T03000216
KBMT 241955Z AUTO 16006KT 10SM SCT027 30/21 A2984 RMK AO2 T03000214
KBMT 241935Z AUTO 12007KT 10SM SCT090 29/22 A2985 RMK AO2 T02940221
KBMT 241915Z AUTO 14006KT 10SM SCT040 SCT065 OVC080 29/23 A2985 RMK AO2 T02860227
KBMT 241855Z AUTO 15005KT 10SM -DZ SCT030 BKN065 OVC080 26/24 A2987 RMK AO2 T02620240
KBMT 241835Z AUTO 18008KT 10SM RA SCT027 BKN047 OVC060 26/23 A2988 RMK AO2 T02590232
KBMT 241815Z AUTO 14008G15KT 10SM BKN029 BKN039 OVC046 28/21 A2989 RMK AO2 T02820213
KBMT 241755Z AUTO 14010G17KT 10SM SCT029 SCT038 BKN049 30/22 A2989 RMK AO2 T02950216 10302 20215
KBMT 241735Z AUTO 15013G18KT 10SM SCT029 SCT043 BKN060 30/22 A2990 RMK AO2 T03020217
KBMT 241715Z AUTO 14008G18KT 10SM SCT022 SCT027 BKN041 30/22 A2991 RMK AO2 T02970218
KBMT 241655Z AUTO 14010KT 10SM SCT026 BKN055 OVC070 29/22 A2992 RMK AO2 T02850223
KBMT 241635Z AUTO 13009KT 10SM SCT030 SCT039 OVC055 28/22 A2992 RMK AO2 T02820220
KBMT 241615Z AUTO 13012KT 10SM BKN028 BKN037 OVC070 28/22 A2992 RMK AO2 T02820215
KBMT 241555Z AUTO 13014G19KT 10SM SCT024 SCT029 BKN044 28/22 A2992 RMK AO2 T02820218
KBMT 241535Z AUTO 13010KT 10SM SCT026 29/22 A2991 RMK AO2 T02860220
KBMT 241515Z AUTO 15008G18KT 10SM SCT024 28/22 A2991 RMK AO2 LTG DSNT S T02780220
KBMT 241455Z AUTO 14011G18KT 10SM SCT085 27/22 A2991 RMK AO2 LTG DSNT S T02720217
KBMT 241430Z AUTO 12006KT 10SM OVC085 26/22 A2990 RMK AO2 T02610222
KBMT 241415Z AUTO 12007KT 10SM OVC085 25/22 A2990 RMK AO2 T02540219
KBMT 241355Z AUTO 11004KT 10SM BKN085 25/21 A2989 RMK AO2 LTG DSNT S T02460214
KBMT 241335Z AUTO 00000KT 10SM SCT085 24/21 A2988 RMK AO2 LTG DSNT S T02350207
KBMT 241315Z AUTO 11004KT 10SM CLR 23/20 A2987 RMK AO2 LTG DSNT S T02260201
KBMT 241255Z AUTO 13005KT 10SM SCT070 SCT090 23/20 A2987 RMK AO2 T02300196
KBMT 241235Z AUTO 13007KT 10SM BKN070 OVC090 23/21 A2988 RMK AO2 T02250205
KBMT 241215Z AUTO 11005KT 10SM OVC070 22/21 A2988 RMK AO2 T02210207
KBMT 241155Z AUTO 11004KT 10SM SCT070 BKN085 21/20 A2988 RMK AO2 T02140202 10232 20213